sensor_id;sensor_type;location;lat;lon;timestamp;P1;durP1;ratioP1;P2;durP2;ratioP2
28551;SDS011;15752;49.560;8.708;2023-03-01T00:01:45;16.00;;;9.70;;
28551;SDS011;15752;49.560;8.708;2023-03-01T00:04:14;13.73;;;9.43;;
28551;SDS011;15752;49.560;8.708;2023-03-01T00:06:43;14.40;;;8.90;;
28551;SDS011;15752;49.560;8.708;2023-03-01T00:09:13;17.00;;;9.40;;
28551;SDS011;15752;49.560;8.708;2023-03-01T00:11:41;13.37;;;8.23;;
28551;SDS011;15752;49.560;8.708;2023-03-01T00:14:11;14.03;;;8.97;;
28551;SDS011;15752;49.560;8.708;2023-03-01T00:16:43;13.53;;;7.97;;
28551;SDS011;15752;49.560;8.708;2023-03-01T00:19:13;13.87;;;8.70;;
28551;SDS011;15752;49.560;8.708;2023-03-01T00:21:45;12.40;;;8.97;;
28551;SDS011;15752;49.560;8.708;2023-03-01T00:24:13;14.77;;;8.80;;
28551;SDS011;15752;49.560;8.708;2023-03-01T00:26:42;10.37;;;7.07;;
28551;SDS011;15752;49.560;8.708;2023-03-01T00:29:11;11.10;;;7.97;;
28551;SDS011;15752;49.560;8.708;2023-03-01T00:31:39;11.57;;;7.73;;
28551;SDS011;15752;49.560;8.708;2023-03-01T00:34:08;12.80;;;8.17;;
28551;SDS011;15752;49.560;8.708;2023-03-01T00:36:37;10.33;;;7.77;;
28551;SDS011;15752;49.560;8.708;2023-03-01T00:39:09;10.40;;;7.20;;
28551;SDS011;15752;49.560;8.708;2023-03-01T00:41:41;12.40;;;8.30;;
28551;SDS011;15752;49.560;8.708;2023-03-01T00:44:09;13.23;;;8.80;;
28551;SDS011;15752;49.560;8.708;2023-03-01T00:46:38;12.73;;;7.90;;
28551;SDS011;15752;49.560;8.708;2023-03-01T00:49:07;11.27;;;8.20;;
28551;SDS011;15752;49.560;8.708;2023-03-01T00:51:35;10.43;;;7.70;;
28551;SDS011;15752;49.560;8.708;2023-03-01T00:54:03;11.60;;;8.27;;
28551;SDS011;15752;49.560;8.708;2023-03-01T00:56:33;12.40;;;8.67;;
28551;SDS011;15752;49.560;8.708;2023-03-01T00:59:02;12.47;;;8.33;;
28551;SDS011;15752;49.560;8.708;2023-03-01T01:01:30;13.93;;;8.80;;
28551;SDS011;15752;49.560;8.708;2023-03-01T01:03:59;13.17;;;8.33;;
28551;SDS011;15752;49.560;8.708;2023-03-01T01:06:31;13.53;;;8.37;;
28551;SDS011;15752;49.560;8.708;2023-03-01T01:09:03;11.37;;;8.80;;
28551;SDS011;15752;49.560;8.708;2023-03-01T01:11:35;10.77;;;8.17;;
28551;SDS011;15752;49.560;8.708;2023-03-01T01:14:03;12.03;;;8.53;;
28551;SDS011;15752;49.560;8.708;2023-03-01T01:16:32;12.93;;;8.47;;
28551;SDS011;15752;49.560;8.708;2023-03-01T01:19:01;14.10;;;9.07;;
28551;SDS011;15752;49.560;8.708;2023-03-01T01:21:30;13.70;;;10.07;;
28551;SDS011;15752;49.560;8.708;2023-03-01T01:23:58;11.80;;;8.33;;
28551;SDS011;15752;49.560;8.708;2023-03-01T01:26:28;12.13;;;9.00;;
28551;SDS011;15752;49.560;8.708;2023-03-01T01:29:00;11.40;;;8.80;;
28551;SDS011;15752;49.560;8.708;2023-03-01T01:31:31;12.23;;;8.73;;
28551;SDS011;15752;49.560;8.708;2023-03-01T01:36:48;12.10;;;8.10;;
28551;SDS011;15752;49.560;8.708;2023-03-01T01:39:20;12.87;;;8.53;;
28551;SDS011;15752;49.560;8.708;2023-03-01T01:41:49;11.23;;;7.60;;
28551;SDS011;15752;49.560;8.708;2023-03-01T01:44:19;13.20;;;9.10;;
28551;SDS011;15752;49.560;8.708;2023-03-01T01:46:51;11.77;;;8.43;;
28551;SDS011;15752;49.560;8.708;2023-03-01T01:49:25;11.93;;;7.77;;
28551;SDS011;15752;49.560;8.708;2023-03-01T01:52:04;12.20;;;8.97;;
28551;SDS011;15752;49.560;8.708;2023-03-01T01:54:40;11.17;;;8.17;;
28551;SDS011;15752;49.560;8.708;2023-03-01T01:57:13;14.40;;;9.03;;
28551;SDS011;15752;49.560;8.708;2023-03-01T01:59:48;15.37;;;10.27;;
28551;SDS011;15752;49.560;8.708;2023-03-01T02:02:22;15.23;;;9.23;;
28551;SDS011;15752;49.560;8.708;2023-03-01T02:04:52;14.37;;;9.37;;
28551;SDS011;15752;49.560;8.708;2023-03-01T02:07:31;11.37;;;8.63;;
28551;SDS011;15752;49.560;8.708;2023-03-01T02:10:00;14.43;;;8.70;;
28551;SDS011;15752;49.560;8.708;2023-03-01T02:12:30;19.10;;;9.93;;
28551;SDS011;15752;49.560;8.708;2023-03-01T02:15:02;12.53;;;9.20;;
28551;SDS011;15752;49.560;8.708;2023-03-01T02:17:32;13.37;;;9.80;;
28551;SDS011;15752;49.560;8.708;2023-03-01T02:20:04;14.27;;;8.67;;
28551;SDS011;15752;49.560;8.708;2023-03-01T02:22:43;11.40;;;8.73;;
28551;SDS011;15752;49.560;8.708;2023-03-01T02:25:21;13.27;;;9.80;;
28551;SDS011;15752;49.560;8.708;2023-03-01T02:27:58;11.37;;;8.77;;
28551;SDS011;15752;49.560;8.708;2023-03-01T02:30:39;14.10;;;9.50;;
28551;SDS011;15752;49.560;8.708;2023-03-01T02:33:29;12.57;;;8.57;;
28551;SDS011;15752;49.560;8.708;2023-03-01T02:36:00;13.53;;;9.37;;
28551;SDS011;15752;49.560;8.708;2023-03-01T02:38:31;13.10;;;9.33;;
28551;SDS011;15752;49.560;8.708;2023-03-01T02:41:00;14.50;;;9.53;;
28551;SDS011;15752;49.560;8.708;2023-03-01T02:43:32;11.43;;;8.30;;
28551;SDS011;15752;49.560;8.708;2023-03-01T02:46:05;13.43;;;9.70;;
28551;SDS011;15752;49.560;8.708;2023-03-01T02:48:41;13.27;;;8.77;;
28551;SDS011;15752;49.560;8.708;2023-03-01T02:51:18;13.90;;;8.83;;
28551;SDS011;15752;49.560;8.708;2023-03-01T02:54:06;14.93;;;9.80;;
28551;SDS011;15752;49.560;8.708;2023-03-01T02:56:42;12.17;;;8.90;;
28551;SDS011;15752;49.560;8.708;2023-03-01T02:59:16;15.50;;;10.03;;
28551;SDS011;15752;49.560;8.708;2023-03-01T03:01:50;13.33;;;9.60;;
28551;SDS011;15752;49.560;8.708;2023-03-01T03:04:19;14.30;;;9.73;;
28551;SDS011;15752;49.560;8.708;2023-03-01T03:06:49;13.97;;;10.43;;
28551;SDS011;15752;49.560;8.708;2023-03-01T03:09:18;18.10;;;9.63;;
28551;SDS011;15752;49.560;8.708;2023-03-01T03:11:47;12.43;;;9.57;;
28551;SDS011;15752;49.560;8.708;2023-03-01T03:14:16;16.47;;;10.00;;
28551;SDS011;15752;49.560;8.708;2023-03-01T03:16:47;12.33;;;8.73;;
28551;SDS011;15752;49.560;8.708;2023-03-01T03:19:18;13.77;;;9.50;;
28551;SDS011;15752;49.560;8.708;2023-03-01T03:21:47;14.07;;;9.87;;
28551;SDS011;15752;49.560;8.708;2023-03-01T03:24:15;13.87;;;9.77;;
28551;SDS011;15752;49.560;8.708;2023-03-01T03:26:44;13.50;;;9.53;;
28551;SDS011;15752;49.560;8.708;2023-03-01T03:29:13;13.90;;;9.83;;
28551;SDS011;15752;49.560;8.708;2023-03-01T03:31:41;12.13;;;9.47;;
28551;SDS011;15752;49.560;8.708;2023-03-01T03:34:11;12.87;;;9.07;;
28551;SDS011;15752;49.560;8.708;2023-03-01T03:36:44;14.20;;;9.83;;
28551;SDS011;15752;49.560;8.708;2023-03-01T03:39:12;15.17;;;9.73;;
28551;SDS011;15752;49.560;8.708;2023-03-01T03:41:41;13.57;;;8.73;;
28551;SDS011;15752;49.560;8.708;2023-03-01T03:44:09;14.43;;;9.53;;
28551;SDS011;15752;49.560;8.708;2023-03-01T03:46:37;15.70;;;11.03;;
28551;SDS011;15752;49.560;8.708;2023-03-01T03:49:06;15.70;;;10.43;;
28551;SDS011;15752;49.560;8.708;2023-03-01T03:51:35;15.83;;;9.83;;
28551;SDS011;15752;49.560;8.708;2023-03-01T03:54:04;15.50;;;10.10;;
28551;SDS011;15752;49.560;8.708;2023-03-01T03:56:32;12.43;;;8.57;;
28551;SDS011;15752;49.560;8.708;2023-03-01T03:59:01;14.17;;;9.87;;
28551;SDS011;15752;49.560;8.708;2023-03-01T04:01:29;14.33;;;10.10;;
28551;SDS011;15752;49.560;8.708;2023-03-01T04:03:58;13.17;;;9.80;;
28551;SDS011;15752;49.560;8.708;2023-03-01T04:06:30;16.37;;;10.90;;
28551;SDS011;15752;49.560;8.708;2023-03-01T04:09:00;17.43;;;10.17;;
28551;SDS011;15752;49.560;8.708;2023-03-01T04:11:29;15.17;;;11.47;;
28551;SDS011;15752;49.560;8.708;2023-03-01T04:13:58;15.77;;;10.80;;
28551;SDS011;15752;49.560;8.708;2023-03-01T04:16:26;17.77;;;11.23;;
28551;SDS011;15752;49.560;8.708;2023-03-01T04:18:55;15.27;;;10.53;;
28551;SDS011;15752;49.560;8.708;2023-03-01T04:21:26;14.10;;;9.67;;
28551;SDS011;15752;49.560;8.708;2023-03-01T04:23:54;13.43;;;10.10;;
28551;SDS011;15752;49.560;8.708;2023-03-01T04:26:24;15.20;;;10.27;;
28551;SDS011;15752;49.560;8.708;2023-03-01T04:28:53;14.90;;;10.07;;
28551;SDS011;15752;49.560;8.708;2023-03-01T04:31:22;15.60;;;10.83;;
28551;SDS011;15752;49.560;8.708;2023-03-01T04:33:51;15.20;;;9.60;;
28551;SDS011;15752;49.560;8.708;2023-03-01T04:36:22;14.83;;;10.47;;
28551;SDS011;15752;49.560;8.708;2023-03-01T04:38:53;15.63;;;10.63;;
28551;SDS011;15752;49.560;8.708;2023-03-01T04:41:25;16.13;;;11.23;;
28551;SDS011;15752;49.560;8.708;2023-03-01T04:43:53;14.30;;;10.40;;
28551;SDS011;15752;49.560;8.708;2023-03-01T04:46:22;14.43;;;9.73;;
28551;SDS011;15752;49.560;8.708;2023-03-01T04:48:51;13.87;;;9.70;;
28551;SDS011;15752;49.560;8.708;2023-03-01T04:51:20;12.40;;;9.80;;
28551;SDS011;15752;49.560;8.708;2023-03-01T04:53:49;14.83;;;10.67;;
28551;SDS011;15752;49.560;8.708;2023-03-01T04:56:17;14.43;;;10.57;;
28551;SDS011;15752;49.560;8.708;2023-03-01T04:58:47;16.63;;;10.50;;
28551;SDS011;15752;49.560;8.708;2023-03-01T05:01:16;12.57;;;9.40;;
28551;SDS011;15752;49.560;8.708;2023-03-01T05:03:47;16.07;;;11.77;;
28551;SDS011;15752;49.560;8.708;2023-03-01T05:06:18;16.37;;;11.60;;
28551;SDS011;15752;49.560;8.708;2023-03-01T05:08:47;17.30;;;11.17;;
28551;SDS011;15752;49.560;8.708;2023-03-01T05:11:16;17.33;;;11.20;;
28551;SDS011;15752;49.560;8.708;2023-03-01T05:13:45;17.40;;;11.77;;
28551;SDS011;15752;49.560;8.708;2023-03-01T05:16:16;18.60;;;12.27;;
28551;SDS011;15752;49.560;8.708;2023-03-01T05:18:46;16.90;;;11.80;;
28551;SDS011;15752;49.560;8.708;2023-03-01T05:21:16;14.97;;;11.00;;
28551;SDS011;15752;49.560;8.708;2023-03-01T05:23:45;19.43;;;11.43;;
28551;SDS011;15752;49.560;8.708;2023-03-01T05:26:14;16.10;;;11.30;;
28551;SDS011;15752;49.560;8.708;2023-03-01T05:28:55;15.10;;;11.13;;
28551;SDS011;15752;49.560;8.708;2023-03-01T05:31:25;15.57;;;11.23;;
28551;SDS011;15752;49.560;8.708;2023-03-01T05:33:54;15.37;;;11.03;;
28551;SDS011;15752;49.560;8.708;2023-03-01T05:36:23;12.93;;;9.73;;
28551;SDS011;15752;49.560;8.708;2023-03-01T05:38:51;13.87;;;9.83;;
28551;SDS011;15752;49.560;8.708;2023-03-01T05:41:19;20.27;;;12.73;;
28551;SDS011;15752;49.560;8.708;2023-03-01T05:43:48;16.37;;;10.20;;
28551;SDS011;15752;49.560;8.708;2023-03-01T05:46:18;16.07;;;12.27;;
28551;SDS011;15752;49.560;8.708;2023-03-01T05:48:46;13.80;;;10.17;;
28551;SDS011;15752;49.560;8.708;2023-03-01T05:51:15;17.90;;;12.53;;
28551;SDS011;15752;49.560;8.708;2023-03-01T05:53:44;17.37;;;13.57;;
28551;SDS011;15752;49.560;8.708;2023-03-01T05:56:12;16.00;;;11.33;;
28551;SDS011;15752;49.560;8.708;2023-03-01T05:58:41;20.20;;;13.30;;
28551;SDS011;15752;49.560;8.708;2023-03-01T06:01:10;18.23;;;12.87;;
28551;SDS011;15752;49.560;8.708;2023-03-01T06:03:41;19.10;;;11.90;;
28551;SDS011;15752;49.560;8.708;2023-03-01T06:06:10;17.40;;;11.87;;
28551;SDS011;15752;49.560;8.708;2023-03-01T06:08:38;18.50;;;13.83;;
28551;SDS011;15752;49.560;8.708;2023-03-01T06:11:07;28.23;;;18.27;;
28551;SDS011;15752;49.560;8.708;2023-03-01T06:13:35;19.83;;;14.93;;
28551;SDS011;15752;49.560;8.708;2023-03-01T06:16:04;22.47;;;15.20;;
28551;SDS011;15752;49.560;8.708;2023-03-01T06:18:34;21.53;;;14.93;;
28551;SDS011;15752;49.560;8.708;2023-03-01T06:21:04;23.60;;;16.03;;
28551;SDS011;15752;49.560;8.708;2023-03-01T06:23:34;22.53;;;15.00;;
28551;SDS011;15752;49.560;8.708;2023-03-01T06:26:05;21.83;;;14.60;;
28551;SDS011;15752;49.560;8.708;2023-03-01T06:28:34;19.80;;;14.07;;
28551;SDS011;15752;49.560;8.708;2023-03-01T06:31:03;20.53;;;14.83;;
28551;SDS011;15752;49.560;8.708;2023-03-01T06:33:35;21.83;;;15.13;;
28551;SDS011;15752;49.560;8.708;2023-03-01T06:36:05;19.83;;;14.50;;
28551;SDS011;15752;49.560;8.708;2023-03-01T06:38:36;20.63;;;13.50;;
28551;SDS011;15752;49.560;8.708;2023-03-01T06:41:07;19.93;;;13.67;;
28551;SDS011;15752;49.560;8.708;2023-03-01T06:43:35;20.03;;;13.80;;
28551;SDS011;15752;49.560;8.708;2023-03-01T06:46:04;20.33;;;12.63;;
28551;SDS011;15752;49.560;8.708;2023-03-01T06:48:33;19.37;;;12.77;;
28551;SDS011;15752;49.560;8.708;2023-03-01T06:51:02;16.43;;;12.37;;
28551;SDS011;15752;49.560;8.708;2023-03-01T06:53:32;17.20;;;13.17;;
28551;SDS011;15752;49.560;8.708;2023-03-01T06:56:00;17.40;;;11.47;;
28551;SDS011;15752;49.560;8.708;2023-03-01T06:58:29;15.80;;;11.83;;
28551;SDS011;15752;49.560;8.708;2023-03-01T07:00:57;15.20;;;11.10;;
28551;SDS011;15752;49.560;8.708;2023-03-01T07:03:26;18.73;;;12.47;;
28551;SDS011;15752;49.560;8.708;2023-03-01T07:05:54;20.57;;;13.10;;
28551;SDS011;15752;49.560;8.708;2023-03-01T07:08:24;15.90;;;10.97;;
28551;SDS011;15752;49.560;8.708;2023-03-01T07:10:54;18.93;;;12.30;;
28551;SDS011;15752;49.560;8.708;2023-03-01T07:13:23;18.97;;;12.97;;
28551;SDS011;15752;49.560;8.708;2023-03-01T07:15:52;17.87;;;12.60;;
28551;SDS011;15752;49.560;8.708;2023-03-01T07:18:20;17.47;;;11.60;;
28551;SDS011;15752;49.560;8.708;2023-03-01T07:20:49;16.90;;;11.93;;
28551;SDS011;15752;49.560;8.708;2023-03-01T07:23:17;17.43;;;12.23;;
28551;SDS011;15752;49.560;8.708;2023-03-01T07:25:51;19.60;;;12.27;;
28551;SDS011;15752;49.560;8.708;2023-03-01T07:28:22;23.23;;;13.77;;
28551;SDS011;15752;49.560;8.708;2023-03-01T07:30:51;25.30;;;13.50;;
28551;SDS011;15752;49.560;8.708;2023-03-01T07:33:20;22.67;;;13.20;;
28551;SDS011;15752;49.560;8.708;2023-03-01T07:35:48;23.53;;;14.07;;
28551;SDS011;15752;49.560;8.708;2023-03-01T07:38:25;20.47;;;13.50;;
28551;SDS011;15752;49.560;8.708;2023-03-01T07:40:57;17.43;;;11.77;;
28551;SDS011;15752;49.560;8.708;2023-03-01T07:43:26;17.53;;;11.73;;
28551;SDS011;15752;49.560;8.708;2023-03-01T07:45:57;17.80;;;11.97;;
28551;SDS011;15752;49.560;8.708;2023-03-01T07:48:27;20.57;;;13.47;;
28551;SDS011;15752;49.560;8.708;2023-03-01T07:50:57;18.87;;;12.70;;
28551;SDS011;15752;49.560;8.708;2023-03-01T07:53:27;20.73;;;13.37;;
28551;SDS011;15752;49.560;8.708;2023-03-01T07:56:02;25.93;;;14.73;;
28551;SDS011;15752;49.560;8.708;2023-03-01T07:58:33;24.63;;;14.87;;
28551;SDS011;15752;49.560;8.708;2023-03-01T08:01:02;19.60;;;14.30;;
28551;SDS011;15752;49.560;8.708;2023-03-01T08:03:31;19.50;;;12.63;;
28551;SDS011;15752;49.560;8.708;2023-03-01T08:05:59;20.00;;;13.53;;
28551;SDS011;15752;49.560;8.708;2023-03-01T08:08:28;16.03;;;11.70;;
28551;SDS011;15752;49.560;8.708;2023-03-01T08:10:57;31.30;;;19.00;;
28551;SDS011;15752;49.560;8.708;2023-03-01T08:13:28;22.97;;;14.47;;
28551;SDS011;15752;49.560;8.708;2023-03-01T08:16:00;16.70;;;12.63;;
28551;SDS011;15752;49.560;8.708;2023-03-01T08:18:30;17.00;;;12.63;;
28551;SDS011;15752;49.560;8.708;2023-03-01T08:21:01;18.70;;;12.77;;
28551;SDS011;15752;49.560;8.708;2023-03-01T08:23:30;17.97;;;11.23;;
28551;SDS011;15752;49.560;8.708;2023-03-01T08:26:03;17.77;;;11.70;;
28551;SDS011;15752;49.560;8.708;2023-03-01T08:28:35;17.80;;;11.63;;
28551;SDS011;15752;49.560;8.708;2023-03-01T08:31:12;18.23;;;12.37;;
28551;SDS011;15752;49.560;8.708;2023-03-01T08:33:43;17.27;;;11.73;;
28551;SDS011;15752;49.560;8.708;2023-03-01T08:36:17;16.77;;;11.77;;
28551;SDS011;15752;49.560;8.708;2023-03-01T08:38:47;16.70;;;12.37;;
28551;SDS011;15752;49.560;8.708;2023-03-01T08:41:15;19.23;;;12.53;;
28551;SDS011;15752;49.560;8.708;2023-03-01T08:43:45;20.30;;;12.93;;
28551;SDS011;15752;49.560;8.708;2023-03-01T08:46:14;20.83;;;11.97;;
28551;SDS011;15752;49.560;8.708;2023-03-01T08:48:43;19.57;;;13.23;;
28551;SDS011;15752;49.560;8.708;2023-03-01T08:51:12;20.20;;;13.70;;
28551;SDS011;15752;49.560;8.708;2023-03-01T08:53:43;17.33;;;12.30;;
28551;SDS011;15752;49.560;8.708;2023-03-01T08:56:12;15.97;;;11.23;;
28551;SDS011;15752;49.560;8.708;2023-03-01T08:58:43;18.10;;;11.67;;
28551;SDS011;15752;49.560;8.708;2023-03-01T09:01:14;18.20;;;14.87;;
28551;SDS011;15752;49.560;8.708;2023-03-01T09:03:44;40.73;;;27.20;;
28551;SDS011;15752;49.560;8.708;2023-03-01T09:06:14;21.20;;;14.63;;
28551;SDS011;15752;49.560;8.708;2023-03-01T09:08:44;18.20;;;12.67;;
28551;SDS011;15752;49.560;8.708;2023-03-01T09:11:16;17.43;;;12.83;;
28551;SDS011;15752;49.560;8.708;2023-03-01T09:13:51;17.60;;;12.47;;
28551;SDS011;15752;49.560;8.708;2023-03-01T09:16:20;18.37;;;12.67;;
28551;SDS011;15752;49.560;8.708;2023-03-01T09:18:49;17.13;;;11.37;;
28551;SDS011;15752;49.560;8.708;2023-03-01T09:21:20;16.13;;;11.90;;
28551;SDS011;15752;49.560;8.708;2023-03-01T09:24:05;17.50;;;12.47;;
28551;SDS011;15752;49.560;8.708;2023-03-01T09:26:35;19.60;;;12.93;;
28551;SDS011;15752;49.560;8.708;2023-03-01T09:29:05;18.37;;;12.50;;
28551;SDS011;15752;49.560;8.708;2023-03-01T09:31:36;19.87;;;13.17;;
28551;SDS011;15752;49.560;8.708;2023-03-01T09:34:04;17.60;;;13.00;;
28551;SDS011;15752;49.560;8.708;2023-03-01T09:36:33;21.37;;;12.67;;
28551;SDS011;15752;49.560;8.708;2023-03-01T09:39:02;20.90;;;13.03;;
28551;SDS011;15752;49.560;8.708;2023-03-01T09:41:43;20.37;;;13.67;;
28551;SDS011;15752;49.560;8.708;2023-03-01T09:44:27;23.23;;;13.37;;
28551;SDS011;15752;49.560;8.708;2023-03-01T09:47:01;20.90;;;13.20;;
28551;SDS011;15752;49.560;8.708;2023-03-01T09:49:31;20.53;;;12.80;;
28551;SDS011;15752;49.560;8.708;2023-03-01T09:52:03;18.17;;;12.23;;
28551;SDS011;15752;49.560;8.708;2023-03-01T09:54:40;20.47;;;12.80;;
28551;SDS011;15752;49.560;8.708;2023-03-01T09:57:15;20.23;;;13.07;;
28551;SDS011;15752;49.560;8.708;2023-03-01T09:59:58;17.03;;;12.57;;
28551;SDS011;15752;49.560;8.708;2023-03-01T10:02:39;18.13;;;13.87;;
28551;SDS011;15752;49.560;8.708;2023-03-01T10:05:14;15.43;;;11.17;;
28551;SDS011;15752;49.560;8.708;2023-03-01T10:08:06;18.47;;;12.93;;
28551;SDS011;15752;49.560;8.708;2023-03-01T10:10:57;17.53;;;12.17;;
28551;SDS011;15752;49.560;8.708;2023-03-01T10:13:28;19.93;;;13.77;;
28551;SDS011;15752;49.560;8.708;2023-03-01T10:16:09;14.10;;;11.50;;
28551;SDS011;15752;49.560;8.708;2023-03-01T10:18:41;20.47;;;12.13;;
28551;SDS011;15752;49.560;8.708;2023-03-01T10:21:14;15.83;;;11.57;;
28551;SDS011;15752;49.560;8.708;2023-03-01T10:23:45;17.50;;;12.70;;
28551;SDS011;15752;49.560;8.708;2023-03-01T10:26:27;18.33;;;12.87;;
28551;SDS011;15752;49.560;8.708;2023-03-01T10:29:08;21.17;;;12.20;;
28551;SDS011;15752;49.560;8.708;2023-03-01T10:31:42;14.70;;;11.40;;
28551;SDS011;15752;49.560;8.708;2023-03-01T10:34:14;19.07;;;12.37;;
28551;SDS011;15752;49.560;8.708;2023-03-01T10:36:47;16.20;;;12.13;;
28551;SDS011;15752;49.560;8.708;2023-03-01T10:39:18;17.93;;;12.57;;
28551;SDS011;15752;49.560;8.708;2023-03-01T10:41:56;18.20;;;13.20;;
28551;SDS011;15752;49.560;8.708;2023-03-01T10:44:38;19.13;;;12.43;;
28551;SDS011;15752;49.560;8.708;2023-03-01T10:47:21;16.90;;;12.50;;
28551;SDS011;15752;49.560;8.708;2023-03-01T10:49:53;17.47;;;13.33;;
28551;SDS011;15752;49.560;8.708;2023-03-01T10:52:28;16.17;;;12.07;;
28551;SDS011;15752;49.560;8.708;2023-03-01T10:55:02;17.23;;;12.27;;
28551;SDS011;15752;49.560;8.708;2023-03-01T10:57:54;17.70;;;11.67;;
28551;SDS011;15752;49.560;8.708;2023-03-01T11:00:45;17.73;;;12.23;;
28551;SDS011;15752;49.560;8.708;2023-03-01T11:03:18;16.77;;;12.63;;
28551;SDS011;15752;49.560;8.708;2023-03-01T11:05:54;18.47;;;12.63;;
28551;SDS011;15752;49.560;8.708;2023-03-01T11:08:31;18.40;;;13.03;;
28551;SDS011;15752;49.560;8.708;2023-03-01T11:13:59;17.77;;;12.67;;
28551;SDS011;15752;49.560;8.708;2023-03-01T11:16:57;15.90;;;11.97;;
28551;SDS011;15752;49.560;8.708;2023-03-01T11:19:29;17.17;;;12.73;;
28551;SDS011;15752;49.560;8.708;2023-03-01T11:21:59;16.63;;;11.77;;
28551;SDS011;15752;49.560;8.708;2023-03-01T11:24:34;17.83;;;12.73;;
28551;SDS011;15752;49.560;8.708;2023-03-01T11:27:14;18.93;;;13.67;;
28551;SDS011;15752;49.560;8.708;2023-03-01T11:29:46;17.17;;;13.67;;
28551;SDS011;15752;49.560;8.708;2023-03-01T11:32:21;15.67;;;11.93;;
28551;SDS011;15752;49.560;8.708;2023-03-01T11:34:57;16.47;;;12.33;;
28551;SDS011;15752;49.560;8.708;2023-03-01T11:37:32;18.03;;;12.13;;
28551;SDS011;15752;49.560;8.708;2023-03-01T11:40:10;15.03;;;11.47;;
28551;SDS011;15752;49.560;8.708;2023-03-01T11:42:46;16.00;;;12.10;;
28551;SDS011;15752;49.560;8.708;2023-03-01T11:45:22;16.37;;;12.47;;
28551;SDS011;15752;49.560;8.708;2023-03-01T11:47:58;17.60;;;12.17;;
28551;SDS011;15752;49.560;8.708;2023-03-01T11:50:41;16.03;;;11.57;;
28551;SDS011;15752;49.560;8.708;2023-03-01T11:53:21;18.97;;;12.90;;
28551;SDS011;15752;49.560;8.708;2023-03-01T11:56:16;17.50;;;12.47;;
28551;SDS011;15752;49.560;8.708;2023-03-01T11:59:06;19.17;;;11.97;;
28551;SDS011;15752;49.560;8.708;2023-03-01T12:05:05;15.60;;;11.43;;
28551;SDS011;15752;49.560;8.708;2023-03-01T12:08:14;15.83;;;12.07;;
28551;SDS011;15752;49.560;8.708;2023-03-01T12:10:52;16.40;;;11.40;;
28551;SDS011;15752;49.560;8.708;2023-03-01T12:13:37;16.67;;;11.90;;
28551;SDS011;15752;49.560;8.708;2023-03-01T12:16:29;15.53;;;11.13;;
28551;SDS011;15752;49.560;8.708;2023-03-01T12:19:15;14.10;;;11.17;;
28551;SDS011;15752;49.560;8.708;2023-03-01T12:22:21;17.13;;;12.20;;
28551;SDS011;15752;49.560;8.708;2023-03-01T12:37:25;14.63;;;11.60;;
28551;SDS011;15752;49.560;8.708;2023-03-01T12:40:16;16.20;;;11.43;;
28551;SDS011;15752;49.560;8.708;2023-03-01T12:43:17;15.00;;;11.07;;
28551;SDS011;15752;49.560;8.708;2023-03-01T12:49:03;16.27;;;12.03;;
28551;SDS011;15752;49.560;8.708;2023-03-01T12:51:37;16.63;;;11.33;;
28551;SDS011;15752;49.560;8.708;2023-03-01T12:54:11;17.70;;;12.07;;
28551;SDS011;15752;49.560;8.708;2023-03-01T12:56:45;16.70;;;12.33;;
28551;SDS011;15752;49.560;8.708;2023-03-01T12:59:19;14.70;;;11.10;;
28551;SDS011;15752;49.560;8.708;2023-03-01T13:01:56;15.10;;;11.30;;
28551;SDS011;15752;49.560;8.708;2023-03-01T13:04:39;16.10;;;10.40;;
28551;SDS011;15752;49.560;8.708;2023-03-01T13:07:23;16.17;;;10.70;;
28551;SDS011;15752;49.560;8.708;2023-03-01T13:10:02;14.57;;;11.27;;
28551;SDS011;15752;49.560;8.708;2023-03-01T13:12:47;12.80;;;9.97;;
28551;SDS011;15752;49.560;8.708;2023-03-01T13:15:32;14.57;;;10.47;;
28551;SDS011;15752;49.560;8.708;2023-03-01T13:18:04;14.37;;;10.67;;
28551;SDS011;15752;49.560;8.708;2023-03-01T13:20:56;14.30;;;10.63;;
28551;SDS011;15752;49.560;8.708;2023-03-01T13:23:28;12.93;;;10.33;;
28551;SDS011;15752;49.560;8.708;2023-03-01T13:28:52;13.53;;;9.73;;
28551;SDS011;15752;49.560;8.708;2023-03-01T13:34:39;12.77;;;9.17;;
28551;SDS011;15752;49.560;8.708;2023-03-01T13:37:20;13.53;;;9.30;;
28551;SDS011;15752;49.560;8.708;2023-03-01T13:43:28;17.07;;;8.60;;
28551;SDS011;15752;49.560;8.708;2023-03-01T13:46:00;13.00;;;9.07;;
28551;SDS011;15752;49.560;8.708;2023-03-01T13:48:37;14.13;;;9.67;;
28551;SDS011;15752;49.560;8.708;2023-03-01T13:51:07;14.23;;;10.07;;
28551;SDS011;15752;49.560;8.708;2023-03-01T13:53:39;13.73;;;10.17;;
28551;SDS011;15752;49.560;8.708;2023-03-01T13:56:11;14.53;;;10.70;;
28551;SDS011;15752;49.560;8.708;2023-03-01T13:58:44;12.00;;;9.70;;
28551;SDS011;15752;49.560;8.708;2023-03-01T14:01:23;13.20;;;9.43;;
28551;SDS011;15752;49.560;8.708;2023-03-01T14:03:54;14.23;;;10.00;;
28551;SDS011;15752;49.560;8.708;2023-03-01T14:06:24;12.93;;;9.13;;
28551;SDS011;15752;49.560;8.708;2023-03-01T14:09:01;13.20;;;9.53;;
28551;SDS011;15752;49.560;8.708;2023-03-01T14:14:44;11.50;;;9.13;;
28551;SDS011;15752;49.560;8.708;2023-03-01T14:17:28;11.63;;;9.13;;
28551;SDS011;15752;49.560;8.708;2023-03-01T14:20:17;13.27;;;8.87;;
28551;SDS011;15752;49.560;8.708;2023-03-01T14:22:48;11.37;;;8.87;;
28551;SDS011;15752;49.560;8.708;2023-03-01T14:25:21;11.90;;;8.70;;
28551;SDS011;15752;49.560;8.708;2023-03-01T14:27:55;13.10;;;9.33;;
28551;SDS011;15752;49.560;8.708;2023-03-01T14:30:33;13.07;;;9.00;;
28551;SDS011;15752;49.560;8.708;2023-03-01T14:33:17;10.13;;;8.70;;
28551;SDS011;15752;49.560;8.708;2023-03-01T14:35:53;11.03;;;8.57;;
28551;SDS011;15752;49.560;8.708;2023-03-01T14:38:31;10.17;;;8.10;;
28551;SDS011;15752;49.560;8.708;2023-03-01T14:41:02;10.47;;;8.17;;
28551;SDS011;15752;49.560;8.708;2023-03-01T14:43:35;10.43;;;7.90;;
28551;SDS011;15752;49.560;8.708;2023-03-01T14:46:05;10.63;;;8.63;;
28551;SDS011;15752;49.560;8.708;2023-03-01T14:48:35;11.13;;;8.43;;
28551;SDS011;15752;49.560;8.708;2023-03-01T14:51:04;12.10;;;8.03;;
28551;SDS011;15752;49.560;8.708;2023-03-01T14:53:33;9.97;;;7.87;;
28551;SDS011;15752;49.560;8.708;2023-03-01T14:56:16;11.27;;;8.30;;
28551;SDS011;15752;49.560;8.708;2023-03-01T14:58:50;10.33;;;7.63;;
28551;SDS011;15752;49.560;8.708;2023-03-01T15:01:20;10.17;;;7.43;;
28551;SDS011;15752;49.560;8.708;2023-03-01T15:03:51;10.43;;;7.87;;
28551;SDS011;15752;49.560;8.708;2023-03-01T15:06:21;11.20;;;7.60;;
28551;SDS011;15752;49.560;8.708;2023-03-01T15:08:51;12.40;;;7.93;;
28551;SDS011;15752;49.560;8.708;2023-03-01T15:11:23;12.03;;;8.10;;
28551;SDS011;15752;49.560;8.708;2023-03-01T15:13:55;11.20;;;8.00;;
28551;SDS011;15752;49.560;8.708;2023-03-01T15:16:25;10.97;;;7.93;;
28551;SDS011;15752;49.560;8.708;2023-03-01T15:18:59;9.73;;;7.17;;
28551;SDS011;15752;49.560;8.708;2023-03-01T15:21:30;9.40;;;7.17;;
28551;SDS011;15752;49.560;8.708;2023-03-01T15:24:05;9.30;;;8.03;;
28551;SDS011;15752;49.560;8.708;2023-03-01T15:26:50;10.27;;;7.63;;
28551;SDS011;15752;49.560;8.708;2023-03-01T15:29:22;9.00;;;7.43;;
28551;SDS011;15752;49.560;8.708;2023-03-01T15:31:57;12.77;;;7.43;;
28551;SDS011;15752;49.560;8.708;2023-03-01T15:34:32;11.60;;;8.10;;
28551;SDS011;15752;49.560;8.708;2023-03-01T15:37:05;9.80;;;6.90;;